sensor_id;sensor_type;location;lat;lon;timestamp;temperature;humidity
15013;DHT22;7603;49.432;11.418;2024-03-17T00:02:13;4.00;99.90
15013;DHT22;7603;49.432;11.418;2024-03-17T00:04:39;3.90;99.90
15013;DHT22;7603;49.432;11.418;2024-03-17T00:07:05;3.80;99.90
15013;DHT22;7603;49.432;11.418;2024-03-17T00:09:31;3.70;99.90
15013;DHT22;7603;49.432;11.418;2024-03-17T00:11:56;3.70;99.90
15013;DHT22;7603;49.432;11.418;2024-03-17T00:14:22;3.60;99.90
15013;DHT22;7603;49.432;11.418;2024-03-17T00:16:49;3.60;99.90
15013;DHT22;7603;49.432;11.418;2024-03-17T00:19:15;3.50;99.90
15013;DHT22;7603;49.432;11.418;2024-03-17T00:21:43;3.40;99.90
15013;DHT22;7603;49.432;11.418;2024-03-17T00:24:08;3.30;99.90
15013;DHT22;7603;49.432;11.418;2024-03-17T00:26:35;3.20;99.90
15013;DHT22;7603;49.432;11.418;2024-03-17T00:29:01;3.10;99.90
15013;DHT22;7603;49.432;11.418;2024-03-17T00:31:29;3.00;99.90
15013;DHT22;7603;49.432;11.418;2024-03-17T00:33:54;2.90;99.90
15013;DHT22;7603;49.432;11.418;2024-03-17T00:36:20;2.80;99.90
15013;DHT22;7603;49.432;11.418;2024-03-17T00:38:46;2.70;99.90
15013;DHT22;7603;49.432;11.418;2024-03-17T00:41:12;2.70;99.90
15013;DHT22;7603;49.432;11.418;2024-03-17T00:43:38;2.70;99.90
15013;DHT22;7603;49.432;11.418;2024-03-17T00:46:04;2.70;99.90
15013;DHT22;7603;49.432;11.418;2024-03-17T00:48:31;2.60;99.90
15013;DHT22;7603;49.432;11.418;2024-03-17T00:50:59;2.70;99.90
15013;DHT22;7603;49.432;11.418;2024-03-17T00:56:09;2.50;99.90
15013;DHT22;7603;49.432;11.418;2024-03-17T00:58:46;2.40;99.90
15013;DHT22;7603;49.432;11.418;2024-03-17T01:01:16;2.30;99.90
15013;DHT22;7603;49.432;11.418;2024-03-17T01:03:45;2.20;99.90
15013;DHT22;7603;49.432;11.418;2024-03-17T01:06:26;2.20;99.90
15013;DHT22;7603;49.432;11.418;2024-03-17T01:08:52;2.20;99.90
15013;DHT22;7603;49.432;11.418;2024-03-17T01:11:21;2.20;99.90
15013;DHT22;7603;49.432;11.418;2024-03-17T01:13:53;2.30;99.90
15013;DHT22;7603;49.432;11.418;2024-03-17T01:16:19;2.30;99.90
15013;DHT22;7603;49.432;11.418;2024-03-17T01:18:47;2.40;99.90
15013;DHT22;7603;49.432;11.418;2024-03-17T01:21:13;2.50;99.90
15013;DHT22;7603;49.432;11.418;2024-03-17T01:23:48;2.70;99.90
15013;DHT22;7603;49.432;11.418;2024-03-17T01:26:17;2.80;99.90
15013;DHT22;7603;49.432;11.418;2024-03-17T01:28:43;2.90;99.90
15013;DHT22;7603;49.432;11.418;2024-03-17T01:31:20;3.00;99.90
15013;DHT22;7603;49.432;11.418;2024-03-17T01:33:46;3.20;99.90
15013;DHT22;7603;49.432;11.418;2024-03-17T01:36:12;3.30;99.90
15013;DHT22;7603;49.432;11.418;2024-03-17T01:38:38;3.40;99.90
15013;DHT22;7603;49.432;11.418;2024-03-17T01:41:04;3.50;99.90
15013;DHT22;7603;49.432;11.418;2024-03-17T01:43:30;3.50;99.90
15013;DHT22;7603;49.432;11.418;2024-03-17T01:45:58;3.60;99.90
15013;DHT22;7603;49.432;11.418;2024-03-17T01:48:24;3.60;99.90
15013;DHT22;7603;49.432;11.418;2024-03-17T01:50:53;3.70;99.90
15013;DHT22;7603;49.432;11.418;2024-03-17T01:53:21;3.70;99.90
15013;DHT22;7603;49.432;11.418;2024-03-17T01:55:52;3.80;99.90
15013;DHT22;7603;49.432;11.418;2024-03-17T01:58:24;3.80;99.90
15013;DHT22;7603;49.432;11.418;2024-03-17T02:00:50;3.80;99.90
15013;DHT22;7603;49.432;11.418;2024-03-17T02:03:17;3.90;99.90
15013;DHT22;7603;49.432;11.418;2024-03-17T02:05:44;3.90;99.90
15013;DHT22;7603;49.432;11.418;2024-03-17T02:08:10;3.90;99.90
15013;DHT22;7603;49.432;11.418;2024-03-17T02:10:39;3.90;99.90
15013;DHT22;7603;49.432;11.418;2024-03-17T02:13:05;3.90;99.90
15013;DHT22;7603;49.432;11.418;2024-03-17T02:15:32;3.90;99.90
15013;DHT22;7603;49.432;11.418;2024-03-17T02:17:58;3.80;99.90
15013;DHT22;7603;49.432;11.418;2024-03-17T02:20:23;3.70;99.90
15013;DHT22;7603;49.432;11.418;2024-03-17T02:23:09;3.60;99.90
15013;DHT22;7603;49.432;11.418;2024-03-17T02:25:35;3.50;99.90
15013;DHT22;7603;49.432;11.418;2024-03-17T02:28:01;3.50;99.90
15013;DHT22;7603;49.432;11.418;2024-03-17T02:30:28;3.40;99.90
15013;DHT22;7603;49.432;11.418;2024-03-17T02:32:54;3.40;99.90
15013;DHT22;7603;49.432;11.418;2024-03-17T02:35:22;3.50;99.90
15013;DHT22;7603;49.432;11.418;2024-03-17T02:37:47;3.50;99.90
15013;DHT22;7603;49.432;11.418;2024-03-17T02:40:13;3.60;99.90
15013;DHT22;7603;49.432;11.418;2024-03-17T02:42:39;3.60;99.90
15013;DHT22;7603;49.432;11.418;2024-03-17T02:45:08;3.70;99.90
15013;DHT22;7603;49.432;11.418;2024-03-17T02:47:34;3.70;99.90
15013;DHT22;7603;49.432;11.418;2024-03-17T02:50:00;3.70;99.90
15013;DHT22;7603;49.432;11.418;2024-03-17T02:52:26;3.80;99.90
15013;DHT22;7603;49.432;11.418;2024-03-17T02:54:54;3.80;99.90
15013;DHT22;7603;49.432;11.418;2024-03-17T02:57:20;3.80;99.90
15013;DHT22;7603;49.432;11.418;2024-03-17T02:59:48;3.80;99.90
15013;DHT22;7603;49.432;11.418;2024-03-17T03:02:14;3.70;99.90
15013;DHT22;7603;49.432;11.418;2024-03-17T03:04:40;3.60;99.90
15013;DHT22;7603;49.432;11.418;2024-03-17T03:07:06;3.60;99.90
15013;DHT22;7603;49.432;11.418;2024-03-17T03:09:32;3.40;99.90
15013;DHT22;7603;49.432;11.418;2024-03-17T03:12:01;3.30;99.90
15013;DHT22;7603;49.432;11.418;2024-03-17T03:14:28;3.10;99.90
15013;DHT22;7603;49.432;11.418;2024-03-17T03:16:54;3.00;99.90
15013;DHT22;7603;49.432;11.418;2024-03-17T03:19:20;2.90;99.90
15013;DHT22;7603;49.432;11.418;2024-03-17T03:21:46;2.80;99.90
15013;DHT22;7603;49.432;11.418;2024-03-17T03:24:14;2.70;99.90
15013;DHT22;7603;49.432;11.418;2024-03-17T03:26:39;2.60;99.90
15013;DHT22;7603;49.432;11.418;2024-03-17T03:29:05;2.60;99.90
15013;DHT22;7603;49.432;11.418;2024-03-17T03:31:32;2.60;99.90
15013;DHT22;7603;49.432;11.418;2024-03-17T03:33:59;2.60;99.90
15013;DHT22;7603;49.432;11.418;2024-03-17T03:36:27;2.60;99.90
15013;DHT22;7603;49.432;11.418;2024-03-17T03:38:53;2.50;99.90
15013;DHT22;7603;49.432;11.418;2024-03-17T03:41:23;2.50;99.90
15013;DHT22;7603;49.432;11.418;2024-03-17T03:43:50;2.50;99.90
15013;DHT22;7603;49.432;11.418;2024-03-17T03:46:16;2.50;99.90
15013;DHT22;7603;49.432;11.418;2024-03-17T03:48:42;2.50;99.90
15013;DHT22;7603;49.432;11.418;2024-03-17T03:51:09;2.50;99.90
15013;DHT22;7603;49.432;11.418;2024-03-17T03:53:36;2.60;99.90
15013;DHT22;7603;49.432;11.418;2024-03-17T03:56:05;2.60;99.90
15013;DHT22;7603;49.432;11.418;2024-03-17T03:58:39;2.70;99.90
15013;DHT22;7603;49.432;11.418;2024-03-17T04:01:09;2.80;99.90
15013;DHT22;7603;49.432;11.418;2024-03-17T04:03:38;2.90;99.90
15013;DHT22;7603;49.432;11.418;2024-03-17T04:06:05;3.00;99.90
15013;DHT22;7603;49.432;11.418;2024-03-17T04:08:32;3.00;99.90
15013;DHT22;7603;49.432;11.418;2024-03-17T04:10:58;3.10;99.90
15013;DHT22;7603;49.432;11.418;2024-03-17T04:13:24;3.20;99.90
15013;DHT22;7603;49.432;11.418;2024-03-17T04:15:50;3.30;99.90
15013;DHT22;7603;49.432;11.418;2024-03-17T04:18:15;3.30;99.90
15013;DHT22;7603;49.432;11.418;2024-03-17T04:20:43;3.40;99.90
15013;DHT22;7603;49.432;11.418;2024-03-17T04:23:09;3.40;99.90
15013;DHT22;7603;49.432;11.418;2024-03-17T04:25:35;3.50;99.90
15013;DHT22;7603;49.432;11.418;2024-03-17T04:28:00;3.60;99.90
15013;DHT22;7603;49.432;11.418;2024-03-17T04:30:26;3.60;99.90
15013;DHT22;7603;49.432;11.418;2024-03-17T04:32:52;3.60;99.90
15013;DHT22;7603;49.432;11.418;2024-03-17T04:35:18;3.60;99.90
15013;DHT22;7603;49.432;11.418;2024-03-17T04:37:44;3.70;99.90
15013;DHT22;7603;49.432;11.418;2024-03-17T04:40:10;3.70;99.90
15013;DHT22;7603;49.432;11.418;2024-03-17T04:42:36;3.70;99.90
15013;DHT22;7603;49.432;11.418;2024-03-17T04:45:05;3.80;99.90
15013;DHT22;7603;49.432;11.418;2024-03-17T04:47:31;3.80;99.90
15013;DHT22;7603;49.432;11.418;2024-03-17T04:49:57;3.80;99.90
15013;DHT22;7603;49.432;11.418;2024-03-17T04:52:23;3.80;99.90
15013;DHT22;7603;49.432;11.418;2024-03-17T04:54:49;3.80;99.90
15013;DHT22;7603;49.432;11.418;2024-03-17T04:57:14;3.90;99.90
15013;DHT22;7603;49.432;11.418;2024-03-17T04:59:40;3.90;99.90
15013;DHT22;7603;49.432;11.418;2024-03-17T05:02:06;3.90;99.90
15013;DHT22;7603;49.432;11.418;2024-03-17T05:04:33;4.00;99.90
15013;DHT22;7603;49.432;11.418;2024-03-17T05:06:58;4.00;99.90
15013;DHT22;7603;49.432;11.418;2024-03-17T05:09:24;4.00;99.90
15013;DHT22;7603;49.432;11.418;2024-03-17T05:11:50;4.00;99.90
15013;DHT22;7603;49.432;11.418;2024-03-17T05:14:19;4.10;99.90
15013;DHT22;7603;49.432;11.418;2024-03-17T05:16:48;4.10;99.90
15013;DHT22;7603;49.432;11.418;2024-03-17T05:19:14;4.10;99.90
15013;DHT22;7603;49.432;11.418;2024-03-17T05:21:40;4.20;99.90
15013;DHT22;7603;49.432;11.418;2024-03-17T05:24:06;4.20;99.90
15013;DHT22;7603;49.432;11.418;2024-03-17T05:26:31;4.20;99.90
15013;DHT22;7603;49.432;11.418;2024-03-17T05:28:57;4.30;99.90
15013;DHT22;7603;49.432;11.418;2024-03-17T05:31:23;4.30;99.90
15013;DHT22;7603;49.432;11.418;2024-03-17T05:33:49;4.30;99.90
15013;DHT22;7603;49.432;11.418;2024-03-17T05:36:15;4.30;99.90
15013;DHT22;7603;49.432;11.418;2024-03-17T05:38:41;4.40;99.90
15013;DHT22;7603;49.432;11.418;2024-03-17T05:41:09;4.40;99.90
15013;DHT22;7603;49.432;11.418;2024-03-17T05:43:38;4.40;99.90
15013;DHT22;7603;49.432;11.418;2024-03-17T05:46:08;4.50;99.90
15013;DHT22;7603;49.432;11.418;2024-03-17T05:48:35;4.50;99.90
15013;DHT22;7603;49.432;11.418;2024-03-17T05:51:06;4.50;99.90
15013;DHT22;7603;49.432;11.418;2024-03-17T05:53:33;4.60;99.90
15013;DHT22;7603;49.432;11.418;2024-03-17T05:56:00;4.60;99.90
15013;DHT22;7603;49.432;11.418;2024-03-17T05:58:26;4.70;99.90
15013;DHT22;7603;49.432;11.418;2024-03-17T06:00:52;4.70;99.90
15013;DHT22;7603;49.432;11.418;2024-03-17T06:03:18;4.80;99.90
15013;DHT22;7603;49.432;11.418;2024-03-17T06:05:44;4.80;99.90
15013;DHT22;7603;49.432;11.418;2024-03-17T06:08:13;4.90;99.90
15013;DHT22;7603;49.432;11.418;2024-03-17T06:10:44;4.90;99.90
15013;DHT22;7603;49.432;11.418;2024-03-17T06:13:10;5.00;99.90
15013;DHT22;7603;49.432;11.418;2024-03-17T06:15:39;5.10;99.90
15013;DHT22;7603;49.432;11.418;2024-03-17T06:18:05;5.10;99.90
15013;DHT22;7603;49.432;11.418;2024-03-17T06:20:34;5.10;99.90
15013;DHT22;7603;49.432;11.418;2024-03-17T06:23:00;5.20;99.90
15013;DHT22;7603;49.432;11.418;2024-03-17T06:25:26;5.30;99.90
15013;DHT22;7603;49.432;11.418;2024-03-17T06:27:53;5.30;99.90
15013;DHT22;7603;49.432;11.418;2024-03-17T06:30:20;5.40;99.90
15013;DHT22;7603;49.432;11.418;2024-03-17T06:32:47;5.40;99.90
15013;DHT22;7603;49.432;11.418;2024-03-17T06:35:16;5.50;99.90
15013;DHT22;7603;49.432;11.418;2024-03-17T06:37:44;5.60;99.90
15013;DHT22;7603;49.432;11.418;2024-03-17T06:40:14;5.70;99.90
15013;DHT22;7603;49.432;11.418;2024-03-17T06:42:40;5.90;99.90
15013;DHT22;7603;49.432;11.418;2024-03-17T06:45:07;6.00;99.90
15013;DHT22;7603;49.432;11.418;2024-03-17T06:47:39;6.00;99.90
15013;DHT22;7603;49.432;11.418;2024-03-17T06:50:06;6.10;99.90
15013;DHT22;7603;49.432;11.418;2024-03-17T06:52:32;6.30;99.90
15013;DHT22;7603;49.432;11.418;2024-03-17T06:54:58;6.40;99.90
15013;DHT22;7603;49.432;11.418;2024-03-17T06:57:24;6.50;99.90
15013;DHT22;7603;49.432;11.418;2024-03-17T06:59:51;6.60;99.90
15013;DHT22;7603;49.432;11.418;2024-03-17T07:02:16;6.70;99.90
15013;DHT22;7603;49.432;11.418;2024-03-17T07:04:47;6.90;99.90
15013;DHT22;7603;49.432;11.418;2024-03-17T07:07:13;7.00;99.90
15013;DHT22;7603;49.432;11.418;2024-03-17T07:09:40;7.20;99.90
15013;DHT22;7603;49.432;11.418;2024-03-17T07:12:07;7.30;99.90
15013;DHT22;7603;49.432;11.418;2024-03-17T07:14:33;7.50;99.90
15013;DHT22;7603;49.432;11.418;2024-03-17T07:16:59;7.60;99.90
15013;DHT22;7603;49.432;11.418;2024-03-17T07:19:25;7.80;99.90
15013;DHT22;7603;49.432;11.418;2024-03-17T07:21:51;8.00;99.90
15013;DHT22;7603;49.432;11.418;2024-03-17T07:24:16;8.20;99.90
15013;DHT22;7603;49.432;11.418;2024-03-17T07:26:42;8.40;99.90
15013;DHT22;7603;49.432;11.418;2024-03-17T07:29:08;8.60;99.90
15013;DHT22;7603;49.432;11.418;2024-03-17T07:31:34;8.80;99.90
15013;DHT22;7603;49.432;11.418;2024-03-17T07:34:00;9.00;99.90
15013;DHT22;7603;49.432;11.418;2024-03-17T07:36:26;9.20;99.90
15013;DHT22;7603;49.432;11.418;2024-03-17T07:38:52;9.40;99.90
15013;DHT22;7603;49.432;11.418;2024-03-17T07:41:19;9.50;99.90
15013;DHT22;7603;49.432;11.418;2024-03-17T07:43:45;9.70;99.90
15013;DHT22;7603;49.432;11.418;2024-03-17T07:46:12;9.80;99.90
15013;DHT22;7603;49.432;11.418;2024-03-17T07:48:44;9.90;99.90
15013;DHT22;7603;49.432;11.418;2024-03-17T07:51:10;10.00;99.90
15013;DHT22;7603;49.432;11.418;2024-03-17T07:53:41;10.10;99.90
15013;DHT22;7603;49.432;11.418;2024-03-17T07:56:09;10.20;99.90
15013;DHT22;7603;49.432;11.418;2024-03-17T07:58:37;10.40;99.90
15013;DHT22;7603;49.432;11.418;2024-03-17T08:01:05;10.50;99.90
15013;DHT22;7603;49.432;11.418;2024-03-17T08:03:32;10.60;99.90
15013;DHT22;7603;49.432;11.418;2024-03-17T08:06:00;10.60;99.90
15013;DHT22;7603;49.432;11.418;2024-03-17T08:08:27;10.70;99.90
15013;DHT22;7603;49.432;11.418;2024-03-17T08:10:53;10.70;99.90
15013;DHT22;7603;49.432;11.418;2024-03-17T08:13:19;10.80;99.90
15013;DHT22;7603;49.432;11.418;2024-03-17T08:15:47;10.90;99.90
15013;DHT22;7603;49.432;11.418;2024-03-17T08:18:20;11.10;99.90
15013;DHT22;7603;49.432;11.418;2024-03-17T08:20:45;11.40;99.90
15013;DHT22;7603;49.432;11.418;2024-03-17T08:23:14;11.80;98.60
15013;DHT22;7603;49.432;11.418;2024-03-17T08:25:40;12.20;97.30
15013;DHT22;7603;49.432;11.418;2024-03-17T08:28:06;12.50;95.80
15013;DHT22;7603;49.432;11.418;2024-03-17T08:30:35;12.70;94.50
15013;DHT22;7603;49.432;11.418;2024-03-17T08:33:01;12.80;92.80
15013;DHT22;7603;49.432;11.418;2024-03-17T08:35:27;13.10;91.90
15013;DHT22;7603;49.432;11.418;2024-03-17T08:37:53;13.30;91.10
15013;DHT22;7603;49.432;11.418;2024-03-17T08:40:22;13.60;90.30
15013;DHT22;7603;49.432;11.418;2024-03-17T08:42:50;14.20;89.30
15013;DHT22;7603;49.432;11.418;2024-03-17T08:45:16;14.80;86.40
15013;DHT22;7603;49.432;11.418;2024-03-17T08:47:42;15.30;83.40
15013;DHT22;7603;49.432;11.418;2024-03-17T08:50:08;15.90;80.00
15013;DHT22;7603;49.432;11.418;2024-03-17T08:52:38;16.50;77.40
15013;DHT22;7603;49.432;11.418;2024-03-17T08:55:04;16.90;73.10
15013;DHT22;7603;49.432;11.418;2024-03-17T08:57:35;17.20;70.20
15013;DHT22;7603;49.432;11.418;2024-03-17T09:00:01;17.40;70.20
15013;DHT22;7603;49.432;11.418;2024-03-17T09:02:27;17.60;68.50
15013;DHT22;7603;49.432;11.418;2024-03-17T09:04:52;18.00;68.00
15013;DHT22;7603;49.432;11.418;2024-03-17T09:07:18;18.40;66.40
15013;DHT22;7603;49.432;11.418;2024-03-17T09:09:47;18.60;65.10
15013;DHT22;7603;49.432;11.418;2024-03-17T09:12:13;19.10;62.10
15013;DHT22;7603;49.432;11.418;2024-03-17T09:14:39;19.40;60.70
15013;DHT22;7603;49.432;11.418;2024-03-17T09:17:06;19.40;59.00
15013;DHT22;7603;49.432;11.418;2024-03-17T09:19:32;19.30;58.30
15013;DHT22;7603;49.432;11.418;2024-03-17T09:21:59;19.40;58.20
15013;DHT22;7603;49.432;11.418;2024-03-17T09:24:25;19.60;57.80
15013;DHT22;7603;49.432;11.418;2024-03-17T09:26:52;19.70;57.20
15013;DHT22;7603;49.432;11.418;2024-03-17T09:29:18;19.60;56.50
15013;DHT22;7603;49.432;11.418;2024-03-17T09:31:44;19.50;55.40
15013;DHT22;7603;49.432;11.418;2024-03-17T09:34:10;19.40;55.60
15013;DHT22;7603;49.432;11.418;2024-03-17T09:36:36;19.40;55.50
15013;DHT22;7603;49.432;11.418;2024-03-17T09:39:02;19.20;55.20
15013;DHT22;7603;49.432;11.418;2024-03-17T09:41:30;19.00;54.10
15013;DHT22;7603;49.432;11.418;2024-03-17T09:43:59;18.90;53.50
15013;DHT22;7603;49.432;11.418;2024-03-17T09:46:26;19.30;53.90
15013;DHT22;7603;49.432;11.418;2024-03-17T09:48:53;19.70;52.90
15013;DHT22;7603;49.432;11.418;2024-03-17T09:51:22;20.10;52.90
15013;DHT22;7603;49.432;11.418;2024-03-17T09:53:48;20.30;51.30
15013;DHT22;7603;49.432;11.418;2024-03-17T09:56:16;20.30;51.00
15013;DHT22;7603;49.432;11.418;2024-03-17T09:58:43;20.20;51.50
15013;DHT22;7603;49.432;11.418;2024-03-17T10:01:09;19.90;51.50
15013;DHT22;7603;49.432;11.418;2024-03-17T10:06:09;19.40;52.30
15013;DHT22;7603;49.432;11.418;2024-03-17T10:08:45;19.10;52.70
15013;DHT22;7603;49.432;11.418;2024-03-17T10:11:12;18.90;53.30
15013;DHT22;7603;49.432;11.418;2024-03-17T10:13:39;18.70;53.60
15013;DHT22;7603;49.432;11.418;2024-03-17T10:16:05;18.50;53.40
15013;DHT22;7603;49.432;11.418;2024-03-17T10:18:31;18.30;54.10
15013;DHT22;7603;49.432;11.418;2024-03-17T10:20:57;18.20;54.70
15013;DHT22;7603;49.432;11.418;2024-03-17T10:23:24;18.30;55.20
15013;DHT22;7603;49.432;11.418;2024-03-17T10:25:50;18.30;54.60
15013;DHT22;7603;49.432;11.418;2024-03-17T10:28:17;18.30;54.90
15013;DHT22;7603;49.432;11.418;2024-03-17T10:31:04;18.00;54.60
15013;DHT22;7603;49.432;11.418;2024-03-17T10:33:33;17.60;55.20
15013;DHT22;7603;49.432;11.418;2024-03-17T10:36:00;17.40;56.20
15013;DHT22;7603;49.432;11.418;2024-03-17T10:38:27;17.20;56.50
15013;DHT22;7603;49.432;11.418;2024-03-17T10:40:54;17.10;57.20
15013;DHT22;7603;49.432;11.418;2024-03-17T10:43:20;17.10;57.70
15013;DHT22;7603;49.432;11.418;2024-03-17T10:45:54;17.30;57.50
15013;DHT22;7603;49.432;11.418;2024-03-17T10:48:29;17.40;57.30
15013;DHT22;7603;49.432;11.418;2024-03-17T10:51:05;17.60;56.40
15013;DHT22;7603;49.432;11.418;2024-03-17T10:53:48;17.70;56.10
15013;DHT22;7603;49.432;11.418;2024-03-17T10:56:26;17.70;56.10
15013;DHT22;7603;49.432;11.418;2024-03-17T10:58:58;17.90;54.80
15013;DHT22;7603;49.432;11.418;2024-03-17T11:01:27;17.90;55.10
15013;DHT22;7603;49.432;11.418;2024-03-17T11:04:05;17.80;55.90
15013;DHT22;7603;49.432;11.418;2024-03-17T11:06:50;17.90;56.20
15013;DHT22;7603;49.432;11.418;2024-03-17T11:11:54;18.20;56.20
15013;DHT22;7603;49.432;11.418;2024-03-17T11:14:20;18.30;55.90
15013;DHT22;7603;49.432;11.418;2024-03-17T11:16:46;18.30;55.70
15013;DHT22;7603;49.432;11.418;2024-03-17T11:19:16;18.20;55.70
15013;DHT22;7603;49.432;11.418;2024-03-17T11:21:42;18.30;55.90
15013;DHT22;7603;49.432;11.418;2024-03-17T11:24:19;18.30;55.80
15013;DHT22;7603;49.432;11.418;2024-03-17T11:26:45;18.30;56.00
15013;DHT22;7603;49.432;11.418;2024-03-17T11:29:28;18.20;56.20
15013;DHT22;7603;49.432;11.418;2024-03-17T11:31:54;18.10;56.40
15013;DHT22;7603;49.432;11.418;2024-03-17T11:37:00;18.10;56.40
15013;DHT22;7603;49.432;11.418;2024-03-17T11:39:49;18.00;56.80
15013;DHT22;7603;49.432;11.418;2024-03-17T11:42:16;17.90;56.90
15013;DHT22;7603;49.432;11.418;2024-03-17T11:44:43;17.70;57.10
15013;DHT22;7603;49.432;11.418;2024-03-17T11:47:19;17.70;57.20
15013;DHT22;7603;49.432;11.418;2024-03-17T11:49:45;18.10;57.70
15013;DHT22;7603;49.432;11.418;2024-03-17T11:52:14;19.20;55.60
15013;DHT22;7603;49.432;11.418;2024-03-17T11:54:41;20.60;54.10
15013;DHT22;7603;49.432;11.418;2024-03-17T11:57:09;22.20;52.70
15013;DHT22;7603;49.432;11.418;2024-03-17T11:59:36;23.70;49.90
15013;DHT22;7603;49.432;11.418;2024-03-17T12:02:31;24.80;48.00
15013;DHT22;7603;49.432;11.418;2024-03-17T12:04:59;25.50;44.50
15013;DHT22;7603;49.432;11.418;2024-03-17T12:07:26;25.60;43.90
15013;DHT22;7603;49.432;11.418;2024-03-17T12:09:54;25.60;43.10
15013;DHT22;7603;49.432;11.418;2024-03-17T12:12:21;25.50;43.50
15013;DHT22;7603;49.432;11.418;2024-03-17T12:14:51;25.60;42.70
15013;DHT22;7603;49.432;11.418;2024-03-17T12:17:24;26.20;42.50
15013;DHT22;7603;49.432;11.418;2024-03-17T12:19:50;26.90;40.30
15013;DHT22;7603;49.432;11.418;2024-03-17T12:22:19;27.10;40.10
15013;DHT22;7603;49.432;11.418;2024-03-17T12:24:48;27.00;38.60
15013;DHT22;7603;49.432;11.418;2024-03-17T12:27:23;26.80;38.50
15013;DHT22;7603;49.432;11.418;2024-03-17T12:29:53;26.30;38.80
15013;DHT22;7603;49.432;11.418;2024-03-17T12:32:23;25.80;39.60
15013;DHT22;7603;49.432;11.418;2024-03-17T12:37:24;26.20;40.60
15013;DHT22;7603;49.432;11.418;2024-03-17T12:39:57;27.00;39.70
15013;DHT22;7603;49.432;11.418;2024-03-17T12:42:26;27.50;38.60
15013;DHT22;7603;49.432;11.418;2024-03-17T12:44:54;28.10;37.40
15013;DHT22;7603;49.432;11.418;2024-03-17T12:47:21;28.70;36.60
15013;DHT22;7603;49.432;11.418;2024-03-17T12:49:49;29.30;35.80
15013;DHT22;7603;49.432;11.418;2024-03-17T12:55:08;30.40;34.00
15013;DHT22;7603;49.432;11.418;2024-03-17T12:58:07;30.80;32.20
15013;DHT22;7603;49.432;11.418;2024-03-17T13:00:59;31.10;31.70
15013;DHT22;7603;49.432;11.418;2024-03-17T13:03:30;31.00;31.50
15013;DHT22;7603;49.432;11.418;2024-03-17T13:05:57;30.80;31.50
15013;DHT22;7603;49.432;11.418;2024-03-17T13:08:23;30.40;31.40
15013;DHT22;7603;49.432;11.418;2024-03-17T13:10:49;29.30;30.90
15013;DHT22;7603;49.432;11.418;2024-03-17T13:13:15;27.70;32.90
15013;DHT22;7603;49.432;11.418;2024-03-17T13:15:42;26.80;34.70
15013;DHT22;7603;49.432;11.418;2024-03-17T13:18:08;26.70;35.10
15013;DHT22;7603;49.432;11.418;2024-03-17T13:20:34;27.10;35.00
15013;DHT22;7603;49.432;11.418;2024-03-17T13:23:00;27.50;34.70
15013;DHT22;7603;49.432;11.418;2024-03-17T13:25:30;27.70;34.30
15013;DHT22;7603;49.432;11.418;2024-03-17T13:28:00;27.40;34.60
15013;DHT22;7603;49.432;11.418;2024-03-17T13:30:26;27.20;34.80
15013;DHT22;7603;49.432;11.418;2024-03-17T13:32:54;27.00;35.00
15013;DHT22;7603;49.432;11.418;2024-03-17T13:35:28;26.70;35.10
15013;DHT22;7603;49.432;11.418;2024-03-17T13:37:58;26.20;35.20
15013;DHT22;7603;49.432;11.418;2024-03-17T13:40:28;25.70;36.30
15013;DHT22;7603;49.432;11.418;2024-03-17T13:42:55;25.20;37.30
15013;DHT22;7603;49.432;11.418;2024-03-17T13:45:23;24.80;37.60
15013;DHT22;7603;49.432;11.418;2024-03-17T13:47:58;24.60;37.80
15013;DHT22;7603;49.432;11.418;2024-03-17T13:50:24;24.50;38.30
15013;DHT22;7603;49.432;11.418;2024-03-17T13:52:50;24.30;38.40
15013;DHT22;7603;49.432;11.418;2024-03-17T13:55:17;23.70;38.60
15013;DHT22;7603;49.432;11.418;2024-03-17T13:57:45;23.10;39.80
15013;DHT22;7603;49.432;11.418;2024-03-17T14:00:12;22.80;40.00
15013;DHT22;7603;49.432;11.418;2024-03-17T14:02:48;22.60;40.80
15013;DHT22;7603;49.432;11.418;2024-03-17T14:05:16;22.30;41.50
15013;DHT22;7603;49.432;11.418;2024-03-17T14:07:43;22.10;42.10
15013;DHT22;7603;49.432;11.418;2024-03-17T14:10:10;22.00;42.40
15013;DHT22;7603;49.432;11.418;2024-03-17T14:12:37;22.10;42.50
15013;DHT22;7603;49.432;11.418;2024-03-17T14:15:10;22.00;42.50
15013;DHT22;7603;49.432;11.418;2024-03-17T14:17:37;22.20;42.30
15013;DHT22;7603;49.432;11.418;2024-03-17T14:20:04;22.30;42.30
15013;DHT22;7603;49.432;11.418;2024-03-17T14:22:31;21.90;42.80
15013;DHT22;7603;49.432;11.418;2024-03-17T14:24:57;21.90;43.60
15013;DHT22;7603;49.432;11.418;2024-03-17T14:27:23;22.20;43.30
15013;DHT22;7603;49.432;11.418;2024-03-17T14:29:50;22.70;42.80
15013;DHT22;7603;49.432;11.418;2024-03-17T14:32:16;23.10;41.70
15013;DHT22;7603;49.432;11.418;2024-03-17T14:34:42;23.20;40.90
15013;DHT22;7603;49.432;11.418;2024-03-17T14:37:08;22.60;41.40
15013;DHT22;7603;49.432;11.418;2024-03-17T14:39:33;21.60;42.60
15013;DHT22;7603;49.432;11.418;2024-03-17T14:41:59;20.80;43.70
15013;DHT22;7603;49.432;11.418;2024-03-17T14:44:25;20.20;45.00
15013;DHT22;7603;49.432;11.418;2024-03-17T14:46:51;19.50;46.20
15013;DHT22;7603;49.432;11.418;2024-03-17T14:49:17;18.90;47.30
15013;DHT22;7603;49.432;11.418;2024-03-17T14:51:43;18.70;48.10
15013;DHT22;7603;49.432;11.418;2024-03-17T14:54:09;18.60;48.50
15013;DHT22;7603;49.432;11.418;2024-03-17T14:56:35;18.50;48.70
15013;DHT22;7603;49.432;11.418;2024-03-17T14:59:01;18.50;49.00
15013;DHT22;7603;49.432;11.418;2024-03-17T15:01:26;18.40;49.10
15013;DHT22;7603;49.432;11.418;2024-03-17T15:03:55;18.30;49.30
15013;DHT22;7603;49.432;11.418;2024-03-17T15:06:21;17.90;50.00
15013;DHT22;7603;49.432;11.418;2024-03-17T15:08:47;17.50;50.50
15013;DHT22;7603;49.432;11.418;2024-03-17T15:11:12;17.30;51.00
15013;DHT22;7603;49.432;11.418;2024-03-17T15:13:38;17.00;51.70
15013;DHT22;7603;49.432;11.418;2024-03-17T15:16:05;16.80;52.50
15013;DHT22;7603;49.432;11.418;2024-03-17T15:18:33;16.40;52.90
15013;DHT22;7603;49.432;11.418;2024-03-17T15:21:00;16.20;53.80
15013;DHT22;7603;49.432;11.418;2024-03-17T15:23:27;16.10;54.20
15013;DHT22;7603;49.432;11.418;2024-03-17T15:26:03;15.90;54.70
15013;DHT22;7603;49.432;11.418;2024-03-17T15:28:35;15.70;55.30
15013;DHT22;7603;49.432;11.418;2024-03-17T15:31:05;15.70;56.30
15013;DHT22;7603;49.432;11.418;2024-03-17T15:33:35;15.50;56.10
15013;DHT22;7603;49.432;11.418;2024-03-17T15:36:05;15.40;56.50
15013;DHT22;7603;49.432;11.418;2024-03-17T15:38:31;15.20;56.80
15013;DHT22;7603;49.432;11.418;2024-03-17T15:41:03;15.10;57.20
15013;DHT22;7603;49.432;11.418;2024-03-17T15:43:34;14.90;57.50
15013;DHT22;7603;49.432;11.418;2024-03-17T15:46:00;14.90;58.10
15013;DHT22;7603;49.432;11.418;2024-03-17T15:48:27;14.80;58.70
15013;DHT22;7603;49.432;11.418;2024-03-17T15:50:58;14.70;58.60
15013;DHT22;7603;49.432;11.418;2024-03-17T15:53:24;14.70;58.80
15013;DHT22;7603;49.432;11.418;2024-03-17T15:55:59;14.60;59.00
15013;DHT22;7603;49.432;11.418;2024-03-17T15:58:26;14.50;59.50